sensor_id;sensor_type;location;lat;lon;timestamp;temperature;humidity
26037;DHT22;13810;48.376;10.944;2023-05-07T00:00:20;11.20;99.90
26037;DHT22;13810;48.376;10.944;2023-05-07T00:00:50;11.20;99.90
26037;DHT22;13810;48.376;10.944;2023-05-07T00:01:21;11.20;99.90
26037;DHT22;13810;48.376;10.944;2023-05-07T00:01:52;11.20;99.90
26037;DHT22;13810;48.376;10.944;2023-05-07T00:02:23;11.20;99.90
26037;DHT22;13810;48.376;10.944;2023-05-07T00:02:54;11.20;99.90
26037;DHT22;13810;48.376;10.944;2023-05-07T00:03:25;11.20;99.90
26037;DHT22;13810;48.376;10.944;2023-05-07T00:03:56;11.20;99.90
26037;DHT22;13810;48.376;10.944;2023-05-07T00:04:27;11.30;99.90
26037;DHT22;13810;48.376;10.944;2023-05-07T00:04:58;11.30;99.90
26037;DHT22;13810;48.376;10.944;2023-05-07T00:05:29;11.30;99.90
26037;DHT22;13810;48.376;10.944;2023-05-07T00:06:00;11.20;99.90
26037;DHT22;13810;48.376;10.944;2023-05-07T00:06:32;11.30;99.90
26037;DHT22;13810;48.376;10.944;2023-05-07T00:07:03;11.30;99.90
26037;DHT22;13810;48.376;10.944;2023-05-07T00:07:34;11.30;99.90
26037;DHT22;13810;48.376;10.944;2023-05-07T00:08:05;11.30;99.90
26037;DHT22;13810;48.376;10.944;2023-05-07T00:08:35;11.20;99.90
26037;DHT22;13810;48.376;10.944;2023-05-07T00:09:06;11.20;99.90
26037;DHT22;13810;48.376;10.944;2023-05-07T00:09:37;11.20;99.90
26037;DHT22;13810;48.376;10.944;2023-05-07T00:10:08;11.20;99.90
26037;DHT22;13810;48.376;10.944;2023-05-07T00:10:39;11.20;99.90
26037;DHT22;13810;48.376;10.944;2023-05-07T00:11:09;11.20;99.90
26037;DHT22;13810;48.376;10.944;2023-05-07T00:11:40;11.20;99.90
26037;DHT22;13810;48.376;10.944;2023-05-07T00:12:10;11.20;99.90
26037;DHT22;13810;48.376;10.944;2023-05-07T00:12:41;11.20;99.90
26037;DHT22;13810;48.376;10.944;2023-05-07T00:13:12;11.20;99.90
26037;DHT22;13810;48.376;10.944;2023-05-07T00:13:42;11.20;99.90
26037;DHT22;13810;48.376;10.944;2023-05-07T00:14:13;11.20;99.90
26037;DHT22;13810;48.376;10.944;2023-05-07T00:14:44;11.20;99.90
26037;DHT22;13810;48.376;10.944;2023-05-07T00:15:14;11.20;99.90
26037;DHT22;13810;48.376;10.944;2023-05-07T00:15:45;11.20;99.90
26037;DHT22;13810;48.376;10.944;2023-05-07T00:16:15;11.20;99.90
26037;DHT22;13810;48.376;10.944;2023-05-07T00:16:46;11.20;99.90
26037;DHT22;13810;48.376;10.944;2023-05-07T00:17:17;11.20;99.90
26037;DHT22;13810;48.376;10.944;2023-05-07T00:17:48;11.30;99.90
26037;DHT22;13810;48.376;10.944;2023-05-07T00:18:18;11.20;99.90
26037;DHT22;13810;48.376;10.944;2023-05-07T00:18:52;11.30;99.90
26037;DHT22;13810;48.376;10.944;2023-05-07T00:19:22;11.30;99.90
26037;DHT22;13810;48.376;10.944;2023-05-07T00:19:53;11.30;99.90
26037;DHT22;13810;48.376;10.944;2023-05-07T00:20:24;11.30;99.90
26037;DHT22;13810;48.376;10.944;2023-05-07T00:20:54;11.30;99.90
26037;DHT22;13810;48.376;10.944;2023-05-07T00:21:26;11.30;99.90
26037;DHT22;13810;48.376;10.944;2023-05-07T00:21:57;11.30;99.90
26037;DHT22;13810;48.376;10.944;2023-05-07T00:22:28;11.30;99.90
26037;DHT22;13810;48.376;10.944;2023-05-07T00:23:00;11.40;99.90
26037;DHT22;13810;48.376;10.944;2023-05-07T00:23:31;11.40;99.90
26037;DHT22;13810;48.376;10.944;2023-05-07T00:24:01;11.40;99.90
26037;DHT22;13810;48.376;10.944;2023-05-07T00:24:32;11.40;99.90
26037;DHT22;13810;48.376;10.944;2023-05-07T00:25:03;11.40;99.90
26037;DHT22;13810;48.376;10.944;2023-05-07T00:25:34;11.40;99.90
26037;DHT22;13810;48.376;10.944;2023-05-07T00:26:05;11.40;99.90
26037;DHT22;13810;48.376;10.944;2023-05-07T00:26:35;11.40;99.90
26037;DHT22;13810;48.376;10.944;2023-05-07T00:27:06;11.40;99.90
26037;DHT22;13810;48.376;10.944;2023-05-07T00:27:36;11.40;99.90
26037;DHT22;13810;48.376;10.944;2023-05-07T00:28:07;11.40;99.90
26037;DHT22;13810;48.376;10.944;2023-05-07T00:28:38;11.40;99.90
26037;DHT22;13810;48.376;10.944;2023-05-07T00:29:08;11.40;99.90
26037;DHT22;13810;48.376;10.944;2023-05-07T00:29:39;11.40;99.90
26037;DHT22;13810;48.376;10.944;2023-05-07T00:30:10;11.40;99.90
26037;DHT22;13810;48.376;10.944;2023-05-07T00:30:41;11.30;99.90
26037;DHT22;13810;48.376;10.944;2023-05-07T00:31:11;11.30;99.90
26037;DHT22;13810;48.376;10.944;2023-05-07T00:31:42;11.30;99.90
26037;DHT22;13810;48.376;10.944;2023-05-07T00:32:13;11.30;99.90
26037;DHT22;13810;48.376;10.944;2023-05-07T00:32:43;11.30;99.90
26037;DHT22;13810;48.376;10.944;2023-05-07T00:33:15;11.30;99.90
26037;DHT22;13810;48.376;10.944;2023-05-07T00:33:46;11.30;99.90
26037;DHT22;13810;48.376;10.944;2023-05-07T00:34:17;11.30;99.90
26037;DHT22;13810;48.376;10.944;2023-05-07T00:34:47;11.30;99.90
26037;DHT22;13810;48.376;10.944;2023-05-07T00:35:18;11.30;99.90
26037;DHT22;13810;48.376;10.944;2023-05-07T00:35:49;11.30;99.90
26037;DHT22;13810;48.376;10.944;2023-05-07T00:36:19;11.30;99.90
26037;DHT22;13810;48.376;10.944;2023-05-07T00:36:50;11.30;99.90
26037;DHT22;13810;48.376;10.944;2023-05-07T00:37:21;11.30;99.90
26037;DHT22;13810;48.376;10.944;2023-05-07T00:37:51;11.30;99.90
26037;DHT22;13810;48.376;10.944;2023-05-07T00:38:22;11.30;99.90
26037;DHT22;13810;48.376;10.944;2023-05-07T00:38:54;11.30;99.90
26037;DHT22;13810;48.376;10.944;2023-05-07T00:39:25;11.30;99.90
26037;DHT22;13810;48.376;10.944;2023-05-07T00:39:56;11.30;99.90
26037;DHT22;13810;48.376;10.944;2023-05-07T00:40:26;11.30;99.90
26037;DHT22;13810;48.376;10.944;2023-05-07T00:40:57;11.30;99.90
26037;DHT22;13810;48.376;10.944;2023-05-07T00:41:28;11.20;99.90
26037;DHT22;13810;48.376;10.944;2023-05-07T00:41:58;11.20;99.90
26037;DHT22;13810;48.376;10.944;2023-05-07T00:42:29;11.20;99.90
26037;DHT22;13810;48.376;10.944;2023-05-07T00:43:00;11.20;99.90
26037;DHT22;13810;48.376;10.944;2023-05-07T00:43:30;11.10;99.90
26037;DHT22;13810;48.376;10.944;2023-05-07T00:44:02;11.10;99.90
26037;DHT22;13810;48.376;10.944;2023-05-07T00:44:32;11.10;99.90
26037;DHT22;13810;48.376;10.944;2023-05-07T00:45:03;11.10;99.90
26037;DHT22;13810;48.376;10.944;2023-05-07T00:45:34;11.00;99.90
26037;DHT22;13810;48.376;10.944;2023-05-07T00:46:05;11.00;99.90
26037;DHT22;13810;48.376;10.944;2023-05-07T00:46:35;11.00;99.90
26037;DHT22;13810;48.376;10.944;2023-05-07T00:47:06;10.90;99.90
26037;DHT22;13810;48.376;10.944;2023-05-07T00:47:37;10.90;99.90
26037;DHT22;13810;48.376;10.944;2023-05-07T00:48:08;10.90;99.90
26037;DHT22;13810;48.376;10.944;2023-05-07T00:48:39;10.90;99.90
26037;DHT22;13810;48.376;10.944;2023-05-07T00:49:10;10.80;99.90
26037;DHT22;13810;48.376;10.944;2023-05-07T00:49:44;10.80;99.90
26037;DHT22;13810;48.376;10.944;2023-05-07T00:50:15;10.80;99.90
26037;DHT22;13810;48.376;10.944;2023-05-07T00:50:47;10.70;99.90
26037;DHT22;13810;48.376;10.944;2023-05-07T00:51:18;10.70;99.90
26037;DHT22;13810;48.376;10.944;2023-05-07T00:51:49;10.70;99.90
26037;DHT22;13810;48.376;10.944;2023-05-07T00:52:24;10.70;99.90
26037;DHT22;13810;48.376;10.944;2023-05-07T00:52:56;10.70;99.90
26037;DHT22;13810;48.376;10.944;2023-05-07T00:53:27;10.70;99.90
26037;DHT22;13810;48.376;10.944;2023-05-07T00:53:59;10.70;99.90
26037;DHT22;13810;48.376;10.944;2023-05-07T00:54:30;10.70;99.90
26037;DHT22;13810;48.376;10.944;2023-05-07T00:55:04;10.70;99.90
26037;DHT22;13810;48.376;10.944;2023-05-07T00:55:36;10.70;99.90
26037;DHT22;13810;48.376;10.944;2023-05-07T00:56:07;10.70;99.90
26037;DHT22;13810;48.376;10.944;2023-05-07T00:56:38;10.70;99.90
26037;DHT22;13810;48.376;10.944;2023-05-07T00:57:10;10.70;99.90
26037;DHT22;13810;48.376;10.944;2023-05-07T00:57:41;10.70;99.90
26037;DHT22;13810;48.376;10.944;2023-05-07T00:58:12;10.70;99.90
26037;DHT22;13810;48.376;10.944;2023-05-07T00:58:43;10.70;99.90
26037;DHT22;13810;48.376;10.944;2023-05-07T00:59:14;10.70;99.90
26037;DHT22;13810;48.376;10.944;2023-05-07T00:59:45;10.70;99.90
26037;DHT22;13810;48.376;10.944;2023-05-07T01:00:16;10.80;99.90
26037;DHT22;13810;48.376;10.944;2023-05-07T01:00:47;10.70;99.90
26037;DHT22;13810;48.376;10.944;2023-05-07T01:01:17;10.80;99.90
26037;DHT22;13810;48.376;10.944;2023-05-07T01:01:48;10.80;99.90
26037;DHT22;13810;48.376;10.944;2023-05-07T01:02:18;10.80;99.90
26037;DHT22;13810;48.376;10.944;2023-05-07T01:02:49;10.80;99.90
26037;DHT22;13810;48.376;10.944;2023-05-07T01:03:20;10.80;99.90
26037;DHT22;13810;48.376;10.944;2023-05-07T01:03:51;10.80;99.90
26037;DHT22;13810;48.376;10.944;2023-05-07T01:04:21;10.80;99.90
26037;DHT22;13810;48.376;10.944;2023-05-07T01:04:52;10.80;99.90
26037;DHT22;13810;48.376;10.944;2023-05-07T01:05:24;10.80;99.90
26037;DHT22;13810;48.376;10.944;2023-05-07T01:05:56;10.80;99.90
26037;DHT22;13810;48.376;10.944;2023-05-07T01:06:29;10.80;99.90
26037;DHT22;13810;48.376;10.944;2023-05-07T01:07:01;10.80;99.90
26037;DHT22;13810;48.376;10.944;2023-05-07T01:07:33;10.80;99.90
26037;DHT22;13810;48.376;10.944;2023-05-07T01:08:05;10.80;99.90
26037;DHT22;13810;48.376;10.944;2023-05-07T01:08:36;10.80;99.90
26037;DHT22;13810;48.376;10.944;2023-05-07T01:09:10;10.80;99.90
26037;DHT22;13810;48.376;10.944;2023-05-07T01:09:41;10.80;99.90
26037;DHT22;13810;48.376;10.944;2023-05-07T01:10:11;10.80;99.90
26037;DHT22;13810;48.376;10.944;2023-05-07T01:10:43;10.80;99.90
26037;DHT22;13810;48.376;10.944;2023-05-07T01:11:14;10.80;99.90
26037;DHT22;13810;48.376;10.944;2023-05-07T01:11:45;10.80;99.90
26037;DHT22;13810;48.376;10.944;2023-05-07T01:12:16;10.80;99.90
26037;DHT22;13810;48.376;10.944;2023-05-07T01:12:48;10.80;99.90
26037;DHT22;13810;48.376;10.944;2023-05-07T01:13:20;10.80;99.90
26037;DHT22;13810;48.376;10.944;2023-05-07T01:13:51;10.80;99.90
26037;DHT22;13810;48.376;10.944;2023-05-07T01:14:22;10.80;99.90
26037;DHT22;13810;48.376;10.944;2023-05-07T01:14:54;10.70;99.90
26037;DHT22;13810;48.376;10.944;2023-05-07T01:15:24;10.70;99.90
26037;DHT22;13810;48.376;10.944;2023-05-07T01:15:55;10.80;99.90
26037;DHT22;13810;48.376;10.944;2023-05-07T01:16:26;10.70;99.90
26037;DHT22;13810;48.376;10.944;2023-05-07T01:16:57;10.70;99.90
26037;DHT22;13810;48.376;10.944;2023-05-07T01:17:29;10.70;99.90
26037;DHT22;13810;48.376;10.944;2023-05-07T01:18:00;10.70;99.90
26037;DHT22;13810;48.376;10.944;2023-05-07T01:18:31;10.70;99.90
26037;DHT22;13810;48.376;10.944;2023-05-07T01:19:02;10.70;99.90
26037;DHT22;13810;48.376;10.944;2023-05-07T01:19:33;10.70;99.90
26037;DHT22;13810;48.376;10.944;2023-05-07T01:20:05;10.70;99.90
26037;DHT22;13810;48.376;10.944;2023-05-07T01:20:36;10.60;99.90
26037;DHT22;13810;48.376;10.944;2023-05-07T01:21:08;10.70;99.90
26037;DHT22;13810;48.376;10.944;2023-05-07T01:21:46;10.60;99.90
26037;DHT22;13810;48.376;10.944;2023-05-07T01:22:31;10.60;99.90
26037;DHT22;13810;48.376;10.944;2023-05-07T01:23:03;10.60;99.90
26037;DHT22;13810;48.376;10.944;2023-05-07T01:23:34;10.60;99.90
26037;DHT22;13810;48.376;10.944;2023-05-07T01:24:06;10.50;99.90
26037;DHT22;13810;48.376;10.944;2023-05-07T01:24:37;10.60;99.90
26037;DHT22;13810;48.376;10.944;2023-05-07T01:25:08;10.50;99.90
26037;DHT22;13810;48.376;10.944;2023-05-07T01:25:39;10.50;99.90
26037;DHT22;13810;48.376;10.944;2023-05-07T01:26:09;10.50;99.90
26037;DHT22;13810;48.376;10.944;2023-05-07T01:26:41;10.50;99.90
26037;DHT22;13810;48.376;10.944;2023-05-07T01:27:12;10.50;99.90
26037;DHT22;13810;48.376;10.944;2023-05-07T01:27:42;10.50;99.90
26037;DHT22;13810;48.376;10.944;2023-05-07T01:28:13;10.50;99.90
26037;DHT22;13810;48.376;10.944;2023-05-07T01:28:44;10.40;99.90
26037;DHT22;13810;48.376;10.944;2023-05-07T01:29:15;10.40;99.90
26037;DHT22;13810;48.376;10.944;2023-05-07T01:29:45;10.50;99.90
26037;DHT22;13810;48.376;10.944;2023-05-07T01:30:17;10.50;99.90
26037;DHT22;13810;48.376;10.944;2023-05-07T01:30:54;10.50;99.90
26037;DHT22;13810;48.376;10.944;2023-05-07T01:31:26;10.50;99.90
26037;DHT22;13810;48.376;10.944;2023-05-07T01:32:00;10.50;99.90
26037;DHT22;13810;48.376;10.944;2023-05-07T01:32:52;10.50;99.90
26037;DHT22;13810;48.376;10.944;2023-05-07T01:33:23;10.50;99.90
26037;DHT22;13810;48.376;10.944;2023-05-07T01:33:56;10.50;99.90
26037;DHT22;13810;48.376;10.944;2023-05-07T01:34:32;10.50;99.90
26037;DHT22;13810;48.376;10.944;2023-05-07T01:35:05;10.50;99.90
26037;DHT22;13810;48.376;10.944;2023-05-07T01:35:42;10.50;99.90
26037;DHT22;13810;48.376;10.944;2023-05-07T01:36:14;10.50;99.90
26037;DHT22;13810;48.376;10.944;2023-05-07T01:36:46;10.50;99.90
26037;DHT22;13810;48.376;10.944;2023-05-07T01:37:17;10.50;99.90
26037;DHT22;13810;48.376;10.944;2023-05-07T01:37:48;10.50;99.90
26037;DHT22;13810;48.376;10.944;2023-05-07T01:38:21;10.50;99.90
26037;DHT22;13810;48.376;10.944;2023-05-07T01:38:53;10.50;99.90
26037;DHT22;13810;48.376;10.944;2023-05-07T01:39:25;10.50;99.90
26037;DHT22;13810;48.376;10.944;2023-05-07T01:39:57;10.50;99.90
26037;DHT22;13810;48.376;10.944;2023-05-07T01:40:28;10.50;99.90
26037;DHT22;13810;48.376;10.944;2023-05-07T01:40:59;10.50;99.90
26037;DHT22;13810;48.376;10.944;2023-05-07T01:41:30;10.50;99.90
26037;DHT22;13810;48.376;10.944;2023-05-07T01:42:01;10.50;99.90
26037;DHT22;13810;48.376;10.944;2023-05-07T01:42:31;10.50;99.90
26037;DHT22;13810;48.376;10.944;2023-05-07T01:43:03;10.50;99.90
26037;DHT22;13810;48.376;10.944;2023-05-07T01:43:34;10.50;99.90
26037;DHT22;13810;48.376;10.944;2023-05-07T01:44:05;10.50;99.90
26037;DHT22;13810;48.376;10.944;2023-05-07T01:44:36;10.50;99.90
26037;DHT22;13810;48.376;10.944;2023-05-07T01:45:07;10.50;99.90
26037;DHT22;13810;48.376;10.944;2023-05-07T01:45:38;10.50;99.90
26037;DHT22;13810;48.376;10.944;2023-05-07T01:46:10;10.50;99.90
26037;DHT22;13810;48.376;10.944;2023-05-07T01:46:41;10.50;99.90
26037;DHT22;13810;48.376;10.944;2023-05-07T01:47:12;10.50;99.90
26037;DHT22;13810;48.376;10.944;2023-05-07T01:47:44;10.50;99.90
26037;DHT22;13810;48.376;10.944;2023-05-07T01:48:15;10.50;99.90
26037;DHT22;13810;48.376;10.944;2023-05-07T01:48:46;10.60;99.90
26037;DHT22;13810;48.376;10.944;2023-05-07T01:49:17;10.60;99.90
26037;DHT22;13810;48.376;10.944;2023-05-07T01:49:48;10.60;99.90
26037;DHT22;13810;48.376;10.944;2023-05-07T01:50:19;10.60;99.90
26037;DHT22;13810;48.376;10.944;2023-05-07T01:50:50;10.60;99.90
26037;DHT22;13810;48.376;10.944;2023-05-07T01:51:21;10.60;99.90
26037;DHT22;13810;48.376;10.944;2023-05-07T01:51:52;10.60;99.90
26037;DHT22;13810;48.376;10.944;2023-05-07T01:52:23;10.60;99.90
26037;DHT22;13810;48.376;10.944;2023-05-07T01:52:55;10.60;99.90
26037;DHT22;13810;48.376;10.944;2023-05-07T01:53:27;10.60;99.90
26037;DHT22;13810;48.376;10.944;2023-05-07T01:53:58;10.60;99.90
26037;DHT22;13810;48.376;10.944;2023-05-07T01:54:29;10.60;99.90
26037;DHT22;13810;48.376;10.944;2023-05-07T01:54:59;10.60;99.90
26037;DHT22;13810;48.376;10.944;2023-05-07T01:55:30;10.60;99.90
26037;DHT22;13810;48.376;10.944;2023-05-07T01:56:01;10.60;99.90
26037;DHT22;13810;48.376;10.944;2023-05-07T01:56:31;10.60;99.90
26037;DHT22;13810;48.376;10.944;2023-05-07T01:57:02;10.60;99.90
26037;DHT22;13810;48.376;10.944;2023-05-07T01:57:33;10.60;99.90
26037;DHT22;13810;48.376;10.944;2023-05-07T01:58:04;10.60;99.90
26037;DHT22;13810;48.376;10.944;2023-05-07T01:58:35;10.60;99.90
26037;DHT22;13810;48.376;10.944;2023-05-07T01:59:05;10.60;99.90
26037;DHT22;13810;48.376;10.944;2023-05-07T01:59:36;10.60;99.90
26037;DHT22;13810;48.376;10.944;2023-05-07T02:00:07;10.60;99.90
26037;DHT22;13810;48.376;10.944;2023-05-07T02:00:39;10.60;99.90
26037;DHT22;13810;48.376;10.944;2023-05-07T02:01:11;10.60;99.90
26037;DHT22;13810;48.376;10.944;2023-05-07T02:01:41;10.60;99.90
26037;DHT22;13810;48.376;10.944;2023-05-07T02:02:12;10.60;99.90
26037;DHT22;13810;48.376;10.944;2023-05-07T02:02:43;10.60;99.90
26037;DHT22;13810;48.376;10.944;2023-05-07T02:03:13;10.60;99.90
26037;DHT22;13810;48.376;10.944;2023-05-07T02:03:44;10.50;99.90
26037;DHT22;13810;48.376;10.944;2023-05-07T02:04:15;10.50;99.90
26037;DHT22;13810;48.376;10.944;2023-05-07T02:04:45;10.50;99.90
26037;DHT22;13810;48.376;10.944;2023-05-07T02:05:16;10.50;99.90
26037;DHT22;13810;48.376;10.944;2023-05-07T02:05:47;10.50;99.90
26037;DHT22;13810;48.376;10.944;2023-05-07T02:06:17;10.50;99.90
26037;DHT22;13810;48.376;10.944;2023-05-07T02:06:48;10.50;99.90
26037;DHT22;13810;48.376;10.944;2023-05-07T02:07:18;10.40;99.90
26037;DHT22;13810;48.376;10.944;2023-05-07T02:07:49;10.40;99.90
26037;DHT22;13810;48.376;10.944;2023-05-07T02:08:20;10.40;99.90
26037;DHT22;13810;48.376;10.944;2023-05-07T02:08:50;10.40;99.90
26037;DHT22;13810;48.376;10.944;2023-05-07T02:09:21;10.40;99.90
26037;DHT22;13810;48.376;10.944;2023-05-07T02:09:52;10.40;99.90
26037;DHT22;13810;48.376;10.944;2023-05-07T02:10:23;10.40;99.90
26037;DHT22;13810;48.376;10.944;2023-05-07T02:10:53;10.40;99.90
26037;DHT22;13810;48.376;10.944;2023-05-07T02:11:24;10.40;99.90
26037;DHT22;13810;48.376;10.944;2023-05-07T02:11:55;10.50;99.90
26037;DHT22;13810;48.376;10.944;2023-05-07T02:12:26;10.50;99.90
26037;DHT22;13810;48.376;10.944;2023-05-07T02:12:56;10.50;99.90
26037;DHT22;13810;48.376;10.944;2023-05-07T02:13:31;10.50;99.90
26037;DHT22;13810;48.376;10.944;2023-05-07T02:14:02;10.50;99.90
26037;DHT22;13810;48.376;10.944;2023-05-07T02:14:32;10.50;99.90
26037;DHT22;13810;48.376;10.944;2023-05-07T02:15:03;10.50;99.90
26037;DHT22;13810;48.376;10.944;2023-05-07T02:15:34;10.50;99.90
26037;DHT22;13810;48.376;10.944;2023-05-07T02:16:05;10.50;99.90
26037;DHT22;13810;48.376;10.944;2023-05-07T02:16:36;10.50;99.90
26037;DHT22;13810;48.376;10.944;2023-05-07T02:17:07;10.50;99.90
26037;DHT22;13810;48.376;10.944;2023-05-07T02:18:05;10.50;99.90
26037;DHT22;13810;48.376;10.944;2023-05-07T02:18:36;10.50;99.90
26037;DHT22;13810;48.376;10.944;2023-05-07T02:19:07;10.50;99.90
26037;DHT22;13810;48.376;10.944;2023-05-07T02:19:37;10.50;99.90
26037;DHT22;13810;48.376;10.944;2023-05-07T02:20:08;10.50;99.90
26037;DHT22;13810;48.376;10.944;2023-05-07T02:20:43;10.50;99.90
26037;DHT22;13810;48.376;10.944;2023-05-07T02:21:14;10.50;99.90
26037;DHT22;13810;48.376;10.944;2023-05-07T02:21:45;10.50;99.90
26037;DHT22;13810;48.376;10.944;2023-05-07T02:22:15;10.50;99.90
26037;DHT22;13810;48.376;10.944;2023-05-07T02:22:46;10.50;99.90
26037;DHT22;13810;48.376;10.944;2023-05-07T02:23:16;10.50;99.90
26037;DHT22;13810;48.376;10.944;2023-05-07T02:23:47;10.50;99.90
26037;DHT22;13810;48.376;10.944;2023-05-07T02:24:18;10.50;99.90
26037;DHT22;13810;48.376;10.944;2023-05-07T02:24:48;10.50;99.90
26037;DHT22;13810;48.376;10.944;2023-05-07T02:25:19;10.50;99.90
26037;DHT22;13810;48.376;10.944;2023-05-07T02:25:50;10.50;99.90
26037;DHT22;13810;48.376;10.944;2023-05-07T02:26:21;10.50;99.90
26037;DHT22;13810;48.376;10.944;2023-05-07T02:26:52;10.50;99.90
26037;DHT22;13810;48.376;10.944;2023-05-07T02:27:22;10.50;99.90
26037;DHT22;13810;48.376;10.944;2023-05-07T02:27:53;10.50;99.90
26037;DHT22;13810;48.376;10.944;2023-05-07T02:28:23;10.50;99.90
26037;DHT22;13810;48.376;10.944;2023-05-07T02:28:54;10.50;99.90
26037;DHT22;13810;48.376;10.944;2023-05-07T02:29:25;10.60;99.90
26037;DHT22;13810;48.376;10.944;2023-05-07T02:29:55;10.60;99.90
26037;DHT22;13810;48.376;10.944;2023-05-07T02:30:26;10.60;99.90
26037;DHT22;13810;48.376;10.944;2023-05-07T02:30:57;10.60;99.90
26037;DHT22;13810;48.376;10.944;2023-05-07T02:31:29;10.60;99.90
26037;DHT22;13810;48.376;10.944;2023-05-07T02:31:59;10.60;99.90
26037;DHT22;13810;48.376;10.944;2023-05-07T02:32:30;10.60;99.90
26037;DHT22;13810;48.376;10.944;2023-05-07T02:33:00;10.60;99.90
26037;DHT22;13810;48.376;10.944;2023-05-07T02:33:31;10.60;99.90
26037;DHT22;13810;48.376;10.944;2023-05-07T02:34:02;10.50;99.90
26037;DHT22;13810;48.376;10.944;2023-05-07T02:34:33;10.50;99.90
26037;DHT22;13810;48.376;10.944;2023-05-07T02:35:04;10.50;99.90
26037;DHT22;13810;48.376;10.944;2023-05-07T02:35:35;10.60;99.90
26037;DHT22;13810;48.376;10.944;2023-05-07T02:36:07;10.60;99.90
26037;DHT22;13810;48.376;10.944;2023-05-07T02:36:38;10.60;99.90
26037;DHT22;13810;48.376;10.944;2023-05-07T02:37:08;10.60;99.90
26037;DHT22;13810;48.376;10.944;2023-05-07T02:37:39;10.60;99.90
26037;DHT22;13810;48.376;10.944;2023-05-07T02:38:09;10.50;99.90
26037;DHT22;13810;48.376;10.944;2023-05-07T02:38:41;10.50;99.90
26037;DHT22;13810;48.376;10.944;2023-05-07T02:39:16;10.50;99.90
26037;DHT22;13810;48.376;10.944;2023-05-07T02:39:47;10.50;99.90
26037;DHT22;13810;48.376;10.944;2023-05-07T02:40:17;10.50;99.90
26037;DHT22;13810;48.376;10.944;2023-05-07T02:40:48;10.50;99.90
26037;DHT22;13810;48.376;10.944;2023-05-07T02:41:19;10.50;99.90
26037;DHT22;13810;48.376;10.944;2023-05-07T02:41:50;10.50;99.90
26037;DHT22;13810;48.376;10.944;2023-05-07T02:42:21;10.60;99.90
26037;DHT22;13810;48.376;10.944;2023-05-07T02:42:52;10.60;99.90
26037;DHT22;13810;48.376;10.944;2023-05-07T02:43:22;10.60;99.90
26037;DHT22;13810;48.376;10.944;2023-05-07T02:43:53;10.60;99.90
26037;DHT22;13810;48.376;10.944;2023-05-07T02:44:23;10.50;99.90
26037;DHT22;13810;48.376;10.944;2023-05-07T02:44:54;10.50;99.90
26037;DHT22;13810;48.376;10.944;2023-05-07T02:45:25;10.50;99.90
26037;DHT22;13810;48.376;10.944;2023-05-07T02:46:07;10.50;99.90
26037;DHT22;13810;48.376;10.944;2023-05-07T02:46:38;10.50;99.90
26037;DHT22;13810;48.376;10.944;2023-05-07T02:47:08;10.50;99.90
26037;DHT22;13810;48.376;10.944;2023-05-07T02:47:40;10.50;99.90
26037;DHT22;13810;48.376;10.944;2023-05-07T02:48:11;10.50;99.90
26037;DHT22;13810;48.376;10.944;2023-05-07T02:48:41;10.50;99.90
26037;DHT22;13810;48.376;10.944;2023-05-07T02:49:12;10.50;99.90
26037;DHT22;13810;48.376;10.944;2023-05-07T02:49:43;10.50;99.90
26037;DHT22;13810;48.376;10.944;2023-05-07T02:50:13;10.40;99.90
26037;DHT22;13810;48.376;10.944;2023-05-07T02:50:45;10.40;99.90
26037;DHT22;13810;48.376;10.944;2023-05-07T02:51:22;10.40;99.90
26037;DHT22;13810;48.376;10.944;2023-05-07T02:51:52;10.30;99.90
26037;DHT22;13810;48.376;10.944;2023-05-07T02:52:23;10.30;99.90
26037;DHT22;13810;48.376;10.944;2023-05-07T02:52:54;10.30;99.90
26037;DHT22;13810;48.376;10.944;2023-05-07T02:53:25;10.30;99.90
26037;DHT22;13810;48.376;10.944;2023-05-07T02:53:56;10.30;99.90
26037;DHT22;13810;48.376;10.944;2023-05-07T02:54:27;10.30;99.90
26037;DHT22;13810;48.376;10.944;2023-05-07T02:54:57;10.30;99.90
26037;DHT22;13810;48.376;10.944;2023-05-07T02:55:28;10.30;99.90
26037;DHT22;13810;48.376;10.944;2023-05-07T02:55:59;10.20;99.90
26037;DHT22;13810;48.376;10.944;2023-05-07T02:56:30;10.20;99.90
26037;DHT22;13810;48.376;10.944;2023-05-07T02:57:01;10.20;99.90
26037;DHT22;13810;48.376;10.944;2023-05-07T02:57:32;10.20;99.90
26037;DHT22;13810;48.376;10.944;2023-05-07T02:58:03;10.20;99.90
26037;DHT22;13810;48.376;10.944;2023-05-07T02:58:33;10.20;99.90
26037;DHT22;13810;48.376;10.944;2023-05-07T02:59:04;10.20;99.90
26037;DHT22;13810;48.376;10.944;2023-05-07T02:59:34;10.10;99.90
26037;DHT22;13810;48.376;10.944;2023-05-07T03:00:13;10.20;99.90
26037;DHT22;13810;48.376;10.944;2023-05-07T03:00:44;10.10;99.90
26037;DHT22;13810;48.376;10.944;2023-05-07T03:01:15;10.10;99.90
26037;DHT22;13810;48.376;10.944;2023-05-07T03:01:45;10.20;99.90
26037;DHT22;13810;48.376;10.944;2023-05-07T03:02:16;10.20;99.90
26037;DHT22;13810;48.376;10.944;2023-05-07T03:02:47;10.10;99.90
26037;DHT22;13810;48.376;10.944;2023-05-07T03:03:18;10.10;99.90
26037;DHT22;13810;48.376;10.944;2023-05-07T03:03:48;10.10;99.90
26037;DHT22;13810;48.376;10.944;2023-05-07T03:04:19;10.10;99.90
26037;DHT22;13810;48.376;10.944;2023-05-07T03:04:50;10.10;99.90
26037;DHT22;13810;48.376;10.944;2023-05-07T03:05:21;10.10;99.90
26037;DHT22;13810;48.376;10.944;2023-05-07T03:05:51;10.10;99.90
26037;DHT22;13810;48.376;10.944;2023-05-07T03:06:22;10.10;99.90
26037;DHT22;13810;48.376;10.944;2023-05-07T03:06:53;10.10;99.90
26037;DHT22;13810;48.376;10.944;2023-05-07T03:07:23;10.10;99.90
26037;DHT22;13810;48.376;10.944;2023-05-07T03:07:54;10.10;99.90
26037;DHT22;13810;48.376;10.944;2023-05-07T03:08:24;10.10;99.90
26037;DHT22;13810;48.376;10.944;2023-05-07T03:08:55;10.00;99.90
26037;DHT22;13810;48.376;10.944;2023-05-07T03:09:26;10.00;99.90
26037;DHT22;13810;48.376;10.944;2023-05-07T03:09:56;10.00;99.90
26037;DHT22;13810;48.376;10.944;2023-05-07T03:10:27;10.00;99.90
26037;DHT22;13810;48.376;10.944;2023-05-07T03:10:58;10.00;99.90
26037;DHT22;13810;48.376;10.944;2023-05-07T03:11:28;10.00;99.90
26037;DHT22;13810;48.376;10.944;2023-05-07T03:11:59;10.00;99.90
26037;DHT22;13810;48.376;10.944;2023-05-07T03:12:30;10.00;99.90
26037;DHT22;13810;48.376;10.944;2023-05-07T03:13:01;10.10;99.90
26037;DHT22;13810;48.376;10.944;2023-05-07T03:13:32;10.10;99.90
26037;DHT22;13810;48.376;10.944;2023-05-07T03:14:02;10.10;99.90
26037;DHT22;13810;48.376;10.944;2023-05-07T03:14:33;10.10;99.90